KCPK

Chesapeake Regional Airport

Norfolk, Virginia, USA
METAR KCPK 220035Z AUTO 00000KT 7SM CLR 18/16 A3040 RMK AO2 T01750155
Observed Flight Rules
Feb-22 @ 00:35 UTC (4 hours ago) Visual Flight Rules
Wind Visibility Clouds
Calm 7 miles
  • Clear skies
Temperatures Readings
Current 18°C / 64°F
Dewpoint 16°C / 61°F
Humidity 88%
Altimeter 30.4" Hg
Pressure 1029 hPa
Elevation 6
METAR KCPK 220035Z AUTO 00000KT 7SM CLR 18/16 A3040 RMK AO2 T01750155
Observed Flight Rules
Feb-22 @ 00:35 UTC
(4 hours ago)
VFR
Wind Visibility
Calm 7 miles
Clouds
  • Clear skies
Temperature Dewpoint
18°C / 64°F 16°C / 61°F
Humidity Altimeter Pressure
88% 30.4" Hg 1029 hPa